createdAt,value
2018-04-15T00:00:55.604Z,0
2018-04-15T00:01:56.176Z,0
2018-04-15T00:02:56.749Z,0
2018-04-15T00:03:57.320Z,0
2018-04-15T00:04:57.891Z,0
2018-04-15T00:05:58.462Z,0
2018-04-15T00:06:59.043Z,0
2018-04-15T00:07:59.617Z,0
2018-04-15T00:09:00.186Z,0
2018-04-15T00:10:00.761Z,0
2018-04-15T00:11:01.334Z,0
2018-04-15T00:12:01.914Z,0
2018-04-15T00:13:02.487Z,0
2018-04-15T00:14:03.060Z,0
2018-04-15T00:15:03.634Z,0
2018-04-15T00:16:04.205Z,0
2018-04-15T00:17:04.775Z,0
2018-04-15T00:18:05.345Z,0
2018-04-15T00:19:05.919Z,0
2018-04-15T00:20:06.489Z,0
2018-04-15T00:21:07.060Z,0
2018-04-15T00:22:07.631Z,0
2018-04-15T00:23:08.202Z,0
2018-04-15T00:24:08.773Z,0
2018-04-15T00:25:09.344Z,0
2018-04-15T00:26:09.918Z,0
2018-04-15T00:27:10.499Z,0
2018-04-15T00:28:11.070Z,0
2018-04-15T00:29:11.641Z,0
2018-04-15T00:30:12.214Z,0
2018-04-15T00:31:12.785Z,0
2018-04-15T00:32:13.355Z,0
2018-04-15T00:33:13.931Z,0
2018-04-15T00:34:14.510Z,0
2018-04-15T00:35:15.081Z,0
2018-04-15T00:36:15.652Z,0
2018-04-15T00:37:16.224Z,0
2018-04-15T00:38:16.796Z,0
2018-04-15T00:39:17.367Z,0
2018-04-15T00:40:17.941Z,0
2018-04-15T00:41:18.509Z,0
2018-04-15T00:42:19.080Z,0
2018-04-15T00:43:19.661Z,0
2018-04-15T00:44:20.234Z,0
2018-04-15T00:45:20.818Z,0
2018-04-15T00:46:21.389Z,0
2018-04-15T00:47:21.964Z,0
2018-04-15T00:48:22.598Z,0
2018-04-15T00:49:23.114Z,0
2018-04-15T00:50:23.686Z,0
2018-04-15T00:51:24.255Z,0
2018-04-15T00:52:24.826Z,0
2018-04-15T00:53:25.398Z,0
2018-04-15T00:54:25.971Z,0
2018-04-15T00:55:26.545Z,0
2018-04-15T00:56:27.118Z,0
2018-04-15T00:57:27.688Z,0
2018-04-15T00:58:28.261Z,0
2018-04-15T00:59:28.838Z,0
2018-04-15T01:00:29.405Z,0
2018-04-15T01:01:29.976Z,0
2018-04-15T01:02:30.547Z,0
2018-04-15T01:03:31.117Z,0
2018-04-15T01:04:31.687Z,0
2018-04-15T01:05:32.257Z,0
2018-04-15T01:06:32.829Z,0
2018-04-15T01:07:33.400Z,0
2018-04-15T01:08:33.971Z,0
2018-04-15T01:09:34.542Z,0
2018-04-15T01:10:35.125Z,0
2018-04-15T01:11:35.697Z,0
2018-04-15T01:12:36.268Z,0
2018-04-15T01:13:36.837Z,0
2018-04-15T01:14:37.407Z,0
2018-04-15T01:15:37.979Z,0
2018-04-15T01:16:38.549Z,0
2018-04-15T01:17:39.119Z,0
2018-04-15T01:18:39.689Z,0
2018-04-15T01:19:40.260Z,0
2018-04-15T01:20:40.830Z,0
2018-04-15T01:21:41.400Z,0
2018-04-15T01:22:41.970Z,0
2018-04-15T01:23:42.541Z,0
2018-04-15T01:24:43.111Z,0
2018-04-15T01:25:43.681Z,0
2018-04-15T01:26:44.250Z,0
2018-04-15T01:27:44.925Z,0
2018-04-15T01:28:45.492Z,0
2018-04-15T01:29:46.072Z,0
2018-04-15T01:30:46.642Z,0
2018-04-15T01:31:47.215Z,0
2018-04-15T01:32:47.796Z,0
2018-04-15T01:34:01.116Z,0
2018-04-15T01:35:01.687Z,0
2018-04-15T01:36:02.261Z,0
2018-04-15T01:37:02.831Z,0
2018-04-15T01:38:03.402Z,0
2018-04-15T01:39:03.973Z,0
2018-04-15T01:40:04.544Z,0
2018-04-15T01:41:05.115Z,0
2018-04-15T01:42:05.701Z,0
2018-04-15T01:43:06.269Z,0
2018-04-15T01:44:06.852Z,0
2018-04-15T01:45:07.425Z,0
2018-04-15T01:46:07.998Z,0
2018-04-15T01:47:08.569Z,0
2018-04-15T01:48:09.141Z,0
2018-04-15T01:49:09.712Z,0
2018-04-15T01:50:10.283Z,0
2018-04-15T01:51:10.856Z,0
2018-04-15T01:52:11.474Z,0
2018-04-15T01:53:12.009Z,0
2018-04-15T01:54:12.581Z,0
2018-04-15T01:55:13.152Z,0
2018-04-15T01:56:13.724Z,0
2018-04-15T01:57:14.307Z,0
2018-04-15T01:58:14.883Z,0
2018-04-15T01:59:15.463Z,0
2018-04-15T02:00:16.035Z,0
2018-04-15T02:01:16.613Z,0
2018-04-15T02:02:17.180Z,0
2018-04-15T02:03:17.751Z,0
2018-04-15T02:04:18.323Z,0
2018-04-15T02:05:18.894Z,0
2018-04-15T02:06:19.469Z,0
2018-04-15T02:07:20.048Z,0
2018-04-15T02:08:20.621Z,0
2018-04-15T02:09:21.193Z,0
2018-04-15T02:10:21.776Z,0
2018-04-15T02:11:22.350Z,0
2018-04-15T02:12:22.921Z,0
2018-04-15T02:13:23.495Z,0
2018-04-15T02:14:24.079Z,0
2018-04-15T02:15:24.651Z,0
2018-04-15T02:16:25.225Z,0
2018-04-15T02:17:25.796Z,0
2018-04-15T02:18:26.368Z,0
2018-04-15T02:19:26.939Z,0
2018-04-15T02:20:27.510Z,0
2018-04-15T02:21:28.083Z,0
2018-04-15T02:22:28.667Z,0
2018-04-15T02:23:29.240Z,0
2018-04-15T02:24:29.812Z,0
2018-04-15T02:25:30.383Z,0
2018-04-15T02:26:30.955Z,0
2018-04-15T02:27:31.527Z,0
2018-04-15T02:28:32.101Z,0
2018-04-15T02:29:32.668Z,0
2018-04-15T02:30:33.239Z,0
2018-04-15T02:31:33.811Z,0
2018-04-15T02:32:34.384Z,0
2018-04-15T02:33:34.957Z,0
2018-04-15T02:34:35.530Z,0
2018-04-15T02:35:36.101Z,0
2018-04-15T02:36:36.684Z,0
2018-04-15T02:37:37.257Z,0
2018-04-15T02:38:37.840Z,0
2018-04-15T02:39:38.424Z,0
2018-04-15T02:40:38.996Z,0
2018-04-15T02:41:39.568Z,0
2018-04-15T02:42:40.140Z,0
2018-04-15T02:43:40.712Z,0
2018-04-15T02:44:41.284Z,0
2018-04-15T02:45:41.863Z,0
2018-04-15T02:46:42.441Z,0
2018-04-15T02:47:43.021Z,0
2018-04-15T02:48:43.594Z,0
2018-04-15T02:49:44.165Z,0
2018-04-15T02:50:44.739Z,0
2018-04-15T02:51:45.309Z,0
2018-04-15T02:52:45.882Z,0
2018-04-15T02:53:46.466Z,0
2018-04-15T02:54:47.046Z,0
2018-04-15T02:55:47.619Z,0
2018-04-15T02:56:48.201Z,0
2018-04-15T02:57:48.773Z,0
2018-04-15T02:58:49.345Z,0
2018-04-15T02:59:49.916Z,0
2018-04-15T03:00:50.487Z,0
2018-04-15T03:01:51.060Z,0
2018-04-15T03:02:51.648Z,0
2018-04-15T03:03:52.213Z,0
2018-04-15T03:04:52.797Z,0
2018-04-15T03:05:53.373Z,0
2018-04-15T03:06:53.944Z,0
2018-04-15T03:07:54.512Z,0
2018-04-15T03:08:55.083Z,0
2018-04-15T03:09:55.660Z,0
2018-04-15T03:10:56.227Z,0
2018-04-15T03:11:56.798Z,0
2018-04-15T03:12:57.367Z,0
2018-04-15T03:13:57.938Z,0
2018-04-15T03:14:58.522Z,0
2018-04-15T03:15:59.095Z,0
2018-04-15T03:16:59.668Z,0
2018-04-15T03:18:00.238Z,0
2018-04-15T03:19:00.812Z,0
2018-04-15T03:20:01.387Z,0
2018-04-15T03:21:01.954Z,0
2018-04-15T03:22:02.538Z,0
2018-04-15T03:23:03.108Z,0
2018-04-15T03:24:03.680Z,0
2018-04-15T03:25:04.254Z,0
2018-04-15T03:26:04.825Z,0
2018-04-15T03:27:05.407Z,0
2018-04-15T03:28:05.981Z,0
2018-04-15T03:29:06.551Z,0
2018-04-15T03:30:07.123Z,0
2018-04-15T03:31:07.694Z,0
2018-04-15T03:32:08.265Z,0
2018-04-15T03:33:08.836Z,0
2018-04-15T03:34:09.419Z,0
2018-04-15T03:35:09.991Z,0
2018-04-15T03:36:10.564Z,0
2018-04-15T03:37:11.135Z,0
2018-04-15T03:38:11.707Z,0
2018-04-15T03:39:12.279Z,0
2018-04-15T03:40:12.852Z,0
2018-04-15T03:41:13.425Z,0
2018-04-15T03:42:13.998Z,0
2018-04-15T03:43:14.568Z,0
2018-04-15T03:44:15.141Z,0
2018-04-15T03:45:15.713Z,0
2018-04-15T03:46:16.287Z,0
2018-04-15T03:47:16.856Z,0
2018-04-15T03:48:17.426Z,0
2018-04-15T03:49:17.998Z,0
2018-04-15T03:50:18.580Z,0
2018-04-15T03:51:19.163Z,0
2018-04-15T03:52:19.737Z,0
2018-04-15T03:53:20.309Z,0
2018-04-15T03:54:20.883Z,0
2018-04-15T03:55:21.455Z,0
2018-04-15T03:56:22.026Z,0
2018-04-15T03:57:22.597Z,0
2018-04-15T03:58:23.169Z,0
2018-04-15T03:59:23.742Z,0
2018-04-15T04:00:24.322Z,0
2018-04-15T04:01:24.895Z,0
2018-04-15T04:02:25.464Z,0
2018-04-15T04:03:26.037Z,0
2018-04-15T04:04:26.607Z,0
2018-04-15T04:05:27.180Z,0
2018-04-15T04:06:27.763Z,0
2018-04-15T04:07:28.333Z,0
2018-04-15T04:08:28.905Z,0
2018-04-15T04:09:29.476Z,0
2018-04-15T04:10:30.047Z,0
2018-04-15T04:11:30.619Z,0
2018-04-15T04:12:31.191Z,0
2018-04-15T04:13:31.762Z,0
2018-04-15T04:14:32.333Z,0
2018-04-15T04:15:32.907Z,0
2018-04-15T04:16:33.479Z,0
2018-04-15T04:17:34.051Z,0
2018-04-15T04:18:34.622Z,0
2018-04-15T04:19:35.194Z,0
2018-04-15T04:20:35.765Z,0
2018-04-15T04:21:36.338Z,0
2018-04-15T04:22:36.910Z,0
2018-04-15T04:23:37.486Z,0
2018-04-15T04:24:38.051Z,0
2018-04-15T04:25:38.622Z,0
2018-04-15T04:26:39.195Z,0
2018-04-15T04:27:39.779Z,0
2018-04-15T04:28:40.351Z,0
2018-04-15T04:29:40.921Z,0
2018-04-15T04:30:41.503Z,0
2018-04-15T04:31:42.076Z,0
2018-04-15T04:32:42.663Z,0
2018-04-15T04:33:43.242Z,0
2018-04-15T04:34:43.814Z,0
2018-04-15T04:35:44.390Z,0
2018-04-15T04:36:44.959Z,0
2018-04-15T04:37:45.542Z,0
2018-04-15T04:38:46.112Z,4
2018-04-15T04:39:46.684Z,4
2018-04-15T04:40:47.255Z,4
2018-04-15T04:41:47.827Z,4
2018-04-15T04:42:48.399Z,4
2018-04-15T04:43:48.972Z,0
2018-04-15T04:44:49.544Z,0
2018-04-15T04:45:50.126Z,4
2018-04-15T04:46:50.708Z,4
2018-04-15T04:47:51.320Z,4
2018-04-15T04:48:51.863Z,0
2018-04-15T04:49:52.435Z,0
2018-04-15T04:50:53.016Z,4
2018-04-15T04:51:53.585Z,4
2018-04-15T04:52:54.158Z,0
2018-04-15T04:53:54.731Z,4
2018-04-15T04:54:55.303Z,4
2018-04-15T04:55:55.876Z,4
2018-04-15T04:56:56.447Z,4
2018-04-15T04:57:57.029Z,4
2018-04-15T04:58:57.602Z,4
2018-04-15T04:59:58.175Z,4
2018-04-15T05:00:58.748Z,4
2018-04-15T05:01:59.319Z,8
2018-04-15T05:02:59.890Z,8
2018-04-15T05:04:00.464Z,8
2018-04-15T05:05:01.045Z,8
2018-04-15T05:06:01.620Z,8
2018-04-15T05:07:02.190Z,8
2018-04-15T05:08:02.761Z,4
2018-04-15T05:09:03.334Z,8
2018-04-15T05:10:03.904Z,4
2018-04-15T05:11:04.474Z,4
2018-04-15T05:12:05.044Z,8
2018-04-15T05:13:05.617Z,12
2018-04-15T05:14:06.189Z,12
2018-04-15T05:15:06.765Z,16
2018-04-15T05:16:07.336Z,16
2018-04-15T05:17:07.964Z,16
2018-04-15T05:18:08.480Z,16
2018-04-15T05:19:09.053Z,16
2018-04-15T05:20:09.625Z,16
2018-04-15T05:21:10.196Z,16
2018-04-15T05:22:10.771Z,16
2018-04-15T05:23:11.344Z,12
2018-04-15T05:24:11.921Z,12
2018-04-15T05:25:12.491Z,12
2018-04-15T05:26:13.062Z,12
2018-04-15T05:27:13.634Z,12
2018-04-15T05:28:14.207Z,12
2018-04-15T05:29:14.781Z,16
2018-04-15T05:30:15.354Z,20
2018-04-15T05:31:15.927Z,20
2018-04-15T05:32:16.560Z,20
2018-04-15T05:33:17.083Z,24
2018-04-15T05:34:17.661Z,24
2018-04-15T05:35:18.229Z,24
2018-04-15T05:36:18.803Z,24
2018-04-15T05:37:19.376Z,28
2018-04-15T05:38:19.948Z,28
2018-04-15T05:39:20.523Z,28
2018-04-15T05:40:21.096Z,28
2018-04-15T05:41:21.670Z,32
2018-04-15T05:42:22.241Z,36
2018-04-15T05:43:22.820Z,32
2018-04-15T05:44:23.400Z,36
2018-04-15T05:45:23.975Z,40
2018-04-15T05:46:24.549Z,40
2018-04-15T05:47:25.115Z,40
2018-04-15T05:48:25.689Z,44
2018-04-15T05:49:26.262Z,44
2018-04-15T05:50:26.835Z,44
2018-04-15T05:51:27.411Z,44
2018-04-15T05:52:27.985Z,48
2018-04-15T05:53:28.556Z,48
2018-04-15T05:54:29.144Z,48
2018-04-15T05:55:29.729Z,48
2018-04-15T05:56:30.310Z,48
2018-04-15T05:57:30.881Z,48
2018-04-15T05:58:31.465Z,52
2018-04-15T05:59:32.096Z,52
2018-04-15T06:00:32.619Z,52
2018-04-15T06:01:33.194Z,56
2018-04-15T06:02:33.765Z,60
2018-04-15T06:03:34.346Z,60
2018-04-15T06:04:34.928Z,64
2018-04-15T06:05:35.500Z,64
2018-04-15T06:06:36.072Z,64
2018-04-15T06:07:36.645Z,64
2018-04-15T06:08:37.218Z,56
2018-04-15T06:09:37.800Z,56
2018-04-15T06:10:38.377Z,60
2018-04-15T06:11:38.946Z,64
2018-04-15T06:12:39.520Z,72
2018-04-15T06:13:40.092Z,68
2018-04-15T06:14:40.665Z,72
2018-04-15T06:15:41.237Z,72
2018-04-15T06:16:41.808Z,72
2018-04-15T06:17:42.380Z,76
2018-04-15T06:18:42.953Z,80
2018-04-15T06:19:43.527Z,80
2018-04-15T06:20:44.099Z,84
2018-04-15T06:21:44.673Z,84
2018-04-15T06:22:45.245Z,88
2018-04-15T06:23:45.817Z,92
2018-04-15T06:24:46.402Z,92
2018-04-15T06:25:46.975Z,88
2018-04-15T06:26:47.545Z,96
2018-04-15T06:27:48.118Z,96
2018-04-15T06:28:48.691Z,96
2018-04-15T06:29:49.268Z,96
2018-04-15T06:30:49.847Z,96
2018-04-15T06:31:50.419Z,96
2018-04-15T06:32:50.991Z,92
2018-04-15T06:33:51.564Z,96
2018-04-15T06:34:52.140Z,100
2018-04-15T06:35:52.717Z,100
2018-04-15T06:36:53.351Z,104
2018-04-15T06:37:53.878Z,112
2018-04-15T06:38:54.461Z,120
2018-04-15T06:39:55.046Z,108
2018-04-15T06:40:55.618Z,116
2018-04-15T06:41:56.199Z,120
2018-04-15T06:42:56.767Z,132
2018-04-15T06:43:57.342Z,140
2018-04-15T06:44:57.928Z,124
2018-04-15T06:45:58.502Z,136
2018-04-15T06:46:59.075Z,156
2018-04-15T06:47:59.650Z,160
2018-04-15T06:49:00.224Z,160
2018-04-15T06:50:00.799Z,152
2018-04-15T06:51:01.373Z,156
2018-04-15T06:52:01.944Z,156
2018-04-15T06:53:02.528Z,160
2018-04-15T06:54:03.100Z,140
2018-04-15T06:55:03.675Z,148
2018-04-15T06:56:04.247Z,160
2018-04-15T06:57:04.832Z,180
2018-04-15T06:58:05.406Z,204
2018-04-15T06:59:05.981Z,204
2018-04-15T07:00:06.562Z,192
2018-04-15T07:01:07.135Z,192
2018-04-15T07:02:07.708Z,200
2018-04-15T07:03:08.280Z,200
2018-04-15T07:04:08.851Z,192
2018-04-15T07:05:09.425Z,200
2018-04-15T07:06:10.005Z,224
2018-04-15T07:07:10.575Z,240
2018-04-15T07:08:11.152Z,260
2018-04-15T07:09:11.725Z,248
2018-04-15T07:10:12.302Z,276
2018-04-15T07:11:12.878Z,276
2018-04-15T07:12:13.451Z,252
2018-04-15T07:13:14.027Z,280
2018-04-15T07:14:14.602Z,292
2018-04-15T07:15:15.178Z,336
2018-04-15T07:16:15.753Z,360
2018-04-15T07:17:16.328Z,380
2018-04-15T07:18:16.914Z,420
2018-04-15T07:19:17.489Z,416
2018-04-15T07:20:18.064Z,444
2018-04-15T07:21:18.640Z,436
2018-04-15T07:22:19.217Z,452
2018-04-15T07:23:19.791Z,476
2018-04-15T07:24:20.367Z,512
2018-04-15T07:25:20.943Z,540
2018-04-15T07:26:21.518Z,564
2018-04-15T07:27:22.094Z,564
2018-04-15T07:28:22.669Z,576
2018-04-15T07:29:23.245Z,572
2018-04-15T07:30:23.924Z,564
2018-04-15T07:31:24.396Z,564
2018-04-15T07:32:24.970Z,572
2018-04-15T07:33:25.545Z,564
2018-04-15T07:34:26.121Z,584
2018-04-15T07:35:26.699Z,624
2018-04-15T07:36:27.326Z,688
2018-04-15T07:37:27.853Z,736
2018-04-15T07:38:28.426Z,756
2018-04-15T07:39:29.000Z,784
2018-04-15T07:40:29.576Z,756
2018-04-15T07:41:30.151Z,640
2018-04-15T07:42:30.727Z,664
2018-04-15T07:43:31.304Z,628
2018-04-15T07:44:31.880Z,604
2018-04-15T07:45:32.456Z,636
2018-04-15T07:46:33.034Z,588
2018-04-15T07:47:33.609Z,572
2018-04-15T07:48:34.191Z,552
2018-04-15T07:49:34.772Z,532
2018-04-15T07:50:35.347Z,504
2018-04-15T07:51:35.921Z,488
2018-04-15T07:52:36.497Z,476
2018-04-15T07:53:37.074Z,460
2018-04-15T07:54:37.652Z,452
2018-04-15T07:55:38.228Z,440
2018-04-15T07:56:38.803Z,420
2018-04-15T07:57:39.381Z,412
2018-04-15T07:58:39.956Z,404
2018-04-15T07:59:40.533Z,396
2018-04-15T08:00:41.110Z,392
2018-04-15T08:01:41.687Z,388
2018-04-15T08:02:42.274Z,388
2018-04-15T08:03:42.858Z,384
2018-04-15T08:04:43.439Z,388
2018-04-15T08:05:44.021Z,392
2018-04-15T08:06:44.596Z,400
2018-04-15T08:07:45.218Z,420
2018-04-15T08:08:45.750Z,416
2018-04-15T08:09:46.327Z,416
2018-04-15T08:10:46.904Z,412
2018-04-15T08:11:47.479Z,396
2018-04-15T08:12:48.057Z,392
2018-04-15T08:13:48.635Z,384
2018-04-15T08:14:49.211Z,380
2018-04-15T08:15:49.789Z,384
2018-04-15T08:16:50.363Z,384
2018-04-15T08:17:50.948Z,408
2018-04-15T08:18:51.524Z,440
2018-04-15T08:19:52.100Z,620
2018-04-15T08:20:52.684Z,556
2018-04-15T08:21:53.268Z,480
2018-04-15T08:22:53.847Z,492
2018-04-15T08:23:54.419Z,588
2018-04-15T08:24:55.007Z,512
2018-04-15T08:25:55.593Z,608
2018-04-15T08:26:56.170Z,592
2018-04-15T08:27:56.751Z,596
2018-04-15T08:28:57.335Z,548
2018-04-15T08:29:57.911Z,540
2018-04-15T08:30:58.487Z,812
2018-04-15T08:31:59.064Z,852
2018-04-15T08:32:59.641Z,808
2018-04-15T08:34:00.218Z,716
2018-04-15T08:35:00.794Z,636
2018-04-15T08:36:01.370Z,480
2018-04-15T08:37:01.950Z,644
2018-04-15T08:38:02.537Z,712
2018-04-15T08:39:03.115Z,556
2018-04-15T08:40:03.693Z,572
2018-04-15T08:41:04.279Z,696
2018-04-15T08:42:04.855Z,556
2018-04-15T08:43:05.433Z,552
2018-04-15T08:44:06.011Z,624
2018-04-15T08:45:06.588Z,692
2018-04-15T08:46:07.177Z,696
2018-04-15T08:47:07.762Z,632
2018-04-15T08:48:08.351Z,704
2018-04-15T08:49:08.919Z,592
2018-04-15T08:50:09.519Z,584
2018-04-15T08:51:10.086Z,512
2018-04-15T08:52:10.662Z,636
2018-04-15T08:53:11.237Z,616
2018-04-15T08:54:11.828Z,708
2018-04-15T08:55:12.404Z,676
2018-04-15T08:56:12.981Z,616
2018-04-15T08:57:13.568Z,660
2018-04-15T08:58:14.146Z,640
2018-04-15T08:59:14.725Z,600
2018-04-15T09:00:15.304Z,640
2018-04-15T09:01:15.894Z,624
2018-04-15T09:02:16.471Z,632
2018-04-15T09:03:17.048Z,688
2018-04-15T09:04:17.626Z,840
2018-04-15T09:05:18.204Z,840
2018-04-15T09:06:18.783Z,752
2018-04-15T09:07:19.358Z,592
2018-04-15T09:08:19.949Z,792
2018-04-15T09:09:20.524Z,752
2018-04-15T09:10:21.101Z,732
2018-04-15T09:11:21.679Z,572
2018-04-15T09:12:22.260Z,704
2018-04-15T09:13:22.837Z,696
2018-04-15T09:14:23.414Z,652
2018-04-15T09:15:23.991Z,580
2018-04-15T09:16:24.568Z,688
2018-04-15T09:17:25.145Z,500
2018-04-15T09:18:25.723Z,648
2018-04-15T09:19:26.301Z,668
2018-04-15T09:20:26.883Z,752
2018-04-15T09:21:27.488Z,816
2018-04-15T09:22:28.034Z,864
2018-04-15T09:23:28.611Z,824
2018-04-15T09:24:29.190Z,768
2018-04-15T09:25:29.770Z,736
2018-04-15T09:26:30.410Z,716
2018-04-15T09:27:30.925Z,692
2018-04-15T09:28:31.505Z,688
2018-04-15T09:29:32.133Z,696
2018-04-15T09:30:32.710Z,700
2018-04-15T09:31:33.289Z,700
2018-04-15T09:32:33.867Z,704
2018-04-15T09:33:34.443Z,712
2018-04-15T09:34:35.021Z,720
2018-04-15T09:35:35.644Z,732
2018-04-15T09:36:36.180Z,748
2018-04-15T09:37:36.759Z,744
2018-04-15T09:38:37.336Z,752
2018-04-15T09:39:37.917Z,756
2018-04-15T09:40:38.495Z,768
2018-04-15T09:41:39.076Z,784
2018-04-15T09:42:39.653Z,804
2018-04-15T09:43:40.232Z,836
2018-04-15T09:44:40.812Z,876
2018-04-15T09:45:41.397Z,892
2018-04-15T09:46:41.981Z,892
2018-04-15T09:47:42.573Z,864
2018-04-15T09:48:43.188Z,828
2018-04-15T09:49:43.730Z,832
2018-04-15T09:50:44.309Z,788
2018-04-15T09:51:44.899Z,864
2018-04-15T09:52:45.476Z,860
2018-04-15T09:53:46.056Z,832
2018-04-15T09:54:46.636Z,820
2018-04-15T09:55:47.215Z,792
2018-04-15T09:56:47.794Z,772
2018-04-15T09:57:48.377Z,784
2018-04-15T09:58:48.955Z,732
2018-04-15T09:59:49.541Z,748
2018-04-15T10:00:50.122Z,752
2018-04-15T10:01:50.700Z,740
2018-04-15T10:02:51.281Z,740
2018-04-15T10:03:51.868Z,740
2018-04-15T10:04:52.447Z,744
2018-04-15T10:05:53.026Z,516
2018-04-15T10:06:53.607Z,760
2018-04-15T10:07:54.185Z,788
2018-04-15T10:08:54.765Z,804
2018-04-15T10:09:55.345Z,800
2018-04-15T10:10:55.941Z,768
2018-04-15T10:11:56.514Z,748
2018-04-15T10:12:57.097Z,748
2018-04-15T10:13:57.675Z,724
2018-04-15T10:14:58.254Z,724
2018-04-15T10:15:58.833Z,512
2018-04-15T10:16:59.465Z,444
2018-04-15T10:17:59.996Z,536
2018-04-15T10:19:00.573Z,804
2018-04-15T10:20:01.152Z,792
2018-04-15T10:21:01.745Z,784
2018-04-15T10:22:02.322Z,792
2018-04-15T10:23:02.903Z,824
2018-04-15T10:24:03.581Z,836
2018-04-15T10:25:04.062Z,852
2018-04-15T10:26:04.640Z,852
2018-04-15T10:27:05.222Z,856
2018-04-15T10:28:05.802Z,840
2018-04-15T10:29:06.384Z,816
2018-04-15T10:30:06.962Z,796
2018-04-15T10:31:07.542Z,780
2018-04-15T10:32:08.125Z,784
2018-04-15T10:33:08.704Z,776
2018-04-15T10:34:09.283Z,768
2018-04-15T10:35:09.864Z,780
2018-04-15T10:36:10.443Z,804
2018-04-15T10:37:11.023Z,804
2018-04-15T10:38:11.608Z,792
2018-04-15T10:39:12.184Z,792
2018-04-15T10:40:12.766Z,800
2018-04-15T10:41:13.346Z,808
2018-04-15T10:42:13.938Z,680
2018-04-15T10:43:14.520Z,492
2018-04-15T10:44:15.096Z,852
2018-04-15T10:45:15.676Z,560
2018-04-15T10:46:16.259Z,780
2018-04-15T10:47:16.881Z,580
2018-04-15T10:48:17.431Z,480
2018-04-15T10:49:18.011Z,568
2018-04-15T10:50:18.591Z,568
2018-04-15T10:51:19.172Z,648
2018-04-15T10:52:19.752Z,852
2018-04-15T10:53:20.331Z,816
2018-04-15T10:54:20.912Z,852
2018-04-15T10:55:21.500Z,860
2018-04-15T10:56:22.073Z,876
2018-04-15T10:57:22.651Z,868
2018-04-15T10:58:23.232Z,892
2018-04-15T10:59:23.812Z,920
2018-04-15T11:00:24.401Z,600
2018-04-15T11:01:24.982Z,840
2018-04-15T11:02:25.574Z,908
2018-04-15T11:03:26.154Z,900
2018-04-15T11:04:26.735Z,896
2018-04-15T11:05:27.316Z,900
2018-04-15T11:06:27.897Z,916
2018-04-15T11:07:28.477Z,924
2018-04-15T11:08:29.056Z,952
2018-04-15T11:09:29.636Z,996
2018-04-15T11:10:30.216Z,1016
2018-04-15T11:11:30.796Z,912
2018-04-15T11:12:31.378Z,752
2018-04-15T11:13:31.956Z,676
2018-04-15T11:14:32.536Z,652
2018-04-15T11:15:33.127Z,608
2018-04-15T11:16:33.706Z,576
2018-04-15T11:17:34.287Z,588
2018-04-15T11:18:34.870Z,952
2018-04-15T11:19:35.451Z,1016
2018-04-15T11:20:36.030Z,776
2018-04-15T11:21:36.612Z,1044
2018-04-15T11:22:37.204Z,1016
2018-04-15T11:23:37.787Z,988
2018-04-15T11:24:38.366Z,1008
2018-04-15T11:25:38.945Z,996
2018-04-15T11:26:39.526Z,700
2018-04-15T11:27:40.108Z,644
2018-04-15T11:28:40.698Z,640
2018-04-15T11:29:41.280Z,684
2018-04-15T11:30:41.861Z,700
2018-04-15T11:31:42.440Z,788
2018-04-15T11:32:43.021Z,952
2018-04-15T11:33:43.604Z,940
2018-04-15T11:34:44.183Z,952
2018-04-15T11:35:44.764Z,956
2018-04-15T11:36:45.356Z,976
2018-04-15T11:37:45.923Z,992
2018-04-15T11:38:46.505Z,1000
2018-04-15T11:39:47.085Z,1004
2018-04-15T11:40:47.665Z,992
2018-04-15T11:41:48.247Z,960
2018-04-15T11:42:48.826Z,972
2018-04-15T11:43:49.407Z,696
2018-04-15T11:44:49.988Z,712
2018-04-15T11:45:50.573Z,1052
2018-04-15T11:46:51.149Z,820
2018-04-15T11:47:51.730Z,816
2018-04-15T11:48:52.310Z,1104
2018-04-15T11:49:52.892Z,1156
2018-04-15T11:50:53.473Z,1140
2018-04-15T11:51:54.055Z,1100
2018-04-15T11:52:54.650Z,1080
2018-04-15T11:53:55.218Z,1068
2018-04-15T11:54:55.799Z,1072
2018-04-15T11:55:56.381Z,1068
2018-04-15T11:56:56.963Z,1084
2018-04-15T11:57:57.544Z,1100
2018-04-15T11:58:58.126Z,1108
2018-04-15T11:59:58.707Z,1108
2018-04-15T12:00:59.288Z,1064
2018-04-15T12:01:59.869Z,1064
2018-04-15T12:03:00.451Z,996
2018-04-15T12:04:01.033Z,852
2018-04-15T12:05:01.618Z,1052
2018-04-15T12:06:02.195Z,780
2018-04-15T12:07:02.776Z,980
2018-04-15T12:08:03.356Z,1044
2018-04-15T12:09:03.936Z,760
2018-04-15T12:10:04.517Z,808
2018-04-15T12:11:05.098Z,680
2018-04-15T12:12:05.679Z,696
2018-04-15T12:13:06.260Z,708
2018-04-15T12:14:06.839Z,736
2018-04-15T12:15:07.422Z,740
2018-04-15T12:16:08.003Z,736
2018-04-15T12:17:08.580Z,696
2018-04-15T12:18:09.160Z,692
2018-04-15T12:19:09.741Z,772
2018-04-15T12:20:10.323Z,744
2018-04-15T12:21:10.905Z,1024
2018-04-15T12:22:11.484Z,844
2018-04-15T12:23:12.067Z,764
2018-04-15T12:24:12.647Z,732
2018-04-15T12:25:13.225Z,732
2018-04-15T12:26:13.816Z,712
2018-04-15T12:27:14.408Z,708
2018-04-15T12:28:14.987Z,716
2018-04-15T12:29:15.568Z,684
2018-04-15T12:30:16.147Z,624
2018-04-15T12:31:16.728Z,600
2018-04-15T12:32:17.310Z,588
2018-04-15T12:33:17.901Z,580
2018-04-15T12:34:18.481Z,580
2018-04-15T12:35:19.063Z,600
2018-04-15T12:36:19.641Z,620
2018-04-15T12:37:20.233Z,620
2018-04-15T12:38:20.827Z,616
2018-04-15T12:39:21.414Z,608
2018-04-15T12:40:21.995Z,604
2018-04-15T12:41:22.574Z,608
2018-04-15T12:42:23.155Z,628
2018-04-15T12:43:23.733Z,652
2018-04-15T12:44:24.318Z,668
2018-04-15T12:45:24.896Z,684
2018-04-15T12:46:25.475Z,752
2018-04-15T12:47:26.055Z,836
2018-04-15T12:48:26.637Z,1084
2018-04-15T12:49:27.218Z,1144
2018-04-15T12:50:27.799Z,1164
2018-04-15T12:51:28.380Z,1164
2018-04-15T12:52:28.960Z,984
2018-04-15T12:53:29.544Z,744
2018-04-15T12:54:30.121Z,740
2018-04-15T12:55:30.701Z,748
2018-04-15T12:56:31.282Z,736
2018-04-15T12:57:31.862Z,724
2018-04-15T12:58:32.443Z,728
2018-04-15T12:59:33.040Z,752
2018-04-15T13:00:33.612Z,776
2018-04-15T13:01:34.192Z,880
2018-04-15T13:02:34.775Z,740
2018-04-15T13:03:35.352Z,752
2018-04-15T13:04:35.937Z,788
2018-04-15T13:05:36.516Z,888
2018-04-15T13:06:37.096Z,1056
2018-04-15T13:07:37.678Z,896
2018-04-15T13:08:38.258Z,792
2018-04-15T13:09:38.838Z,764
2018-04-15T13:10:39.419Z,744
2018-04-15T13:11:40.002Z,716
2018-04-15T13:12:40.590Z,724
2018-04-15T13:13:41.172Z,716
2018-04-15T13:14:41.751Z,804
2018-04-15T13:15:42.332Z,728
2018-04-15T13:16:42.912Z,744
2018-04-15T13:17:43.492Z,748
2018-04-15T13:18:44.075Z,764
2018-04-15T13:19:44.664Z,784
2018-04-15T13:20:45.235Z,1164
2018-04-15T13:21:45.818Z,1216
2018-04-15T13:22:46.400Z,1008
2018-04-15T13:23:46.978Z,904
2018-04-15T13:24:47.560Z,900
2018-04-15T13:25:48.140Z,912
2018-04-15T13:26:48.723Z,952
2018-04-15T13:27:49.299Z,1344
2018-04-15T13:28:49.933Z,1364
2018-04-15T13:29:50.464Z,1356
2018-04-15T13:30:51.044Z,1352
2018-04-15T13:31:51.624Z,1332
2018-04-15T13:32:52.207Z,1332
2018-04-15T13:33:52.788Z,1324
2018-04-15T13:34:53.369Z,1204
2018-04-15T13:35:53.950Z,936
2018-04-15T13:36:54.531Z,900
2018-04-15T13:37:55.110Z,852
2018-04-15T13:38:55.702Z,808
2018-04-15T13:39:56.283Z,792
2018-04-15T13:40:56.864Z,816
2018-04-15T13:41:57.453Z,928
2018-04-15T13:42:58.033Z,1040
2018-04-15T13:43:58.615Z,1148
2018-04-15T13:44:59.202Z,1432
2018-04-15T13:45:59.779Z,1472
2018-04-15T13:47:00.412Z,1464
2018-04-15T13:48:00.945Z,1424
2018-04-15T13:49:01.523Z,1400
2018-04-15T13:50:02.103Z,1384
2018-04-15T13:51:02.686Z,1368
2018-04-15T13:52:03.267Z,1368
2018-04-15T13:53:03.849Z,1360
2018-04-15T13:54:04.431Z,1344
2018-04-15T13:55:05.017Z,1316
2018-04-15T13:56:05.609Z,1312
2018-04-15T13:57:06.195Z,1300
2018-04-15T13:58:06.785Z,1296
2018-04-15T13:59:07.368Z,1324
2018-04-15T14:00:07.951Z,1332
2018-04-15T14:01:08.534Z,1352
2018-04-15T14:02:09.115Z,1380
2018-04-15T14:03:09.696Z,1400
2018-04-15T14:04:10.281Z,1428
2018-04-15T14:05:10.862Z,1444
2018-04-15T14:06:11.445Z,1452
2018-04-15T14:07:12.038Z,1460
2018-04-15T14:08:12.620Z,1456
2018-04-15T14:09:13.203Z,1432
2018-04-15T14:10:13.786Z,1412
2018-04-15T14:11:14.366Z,1408
2018-04-15T14:12:14.948Z,1416
2018-04-15T14:13:15.532Z,1404
2018-04-15T14:14:16.113Z,1108
2018-04-15T14:15:16.708Z,1348
2018-04-15T14:16:17.300Z,1388